Time;durP1;ratioP1;P1;durP2;ratioP2;P2;SDS_P1;SDS_P2;PMS_P1;PMS_P2;Temp;Humidity;BMP_temperature;BMP_pressure;BME280_temperature;BME280_humidity;BME280_pressure;Samples;Min_cycle;Max_cycle;Signal;HPM_P1;HPM_P2
2023/01/31 00:00:29;;;;;;;18.45;2.95;;;;;;;6.73;46.64;102008.34;7389737;19;20002;-60
2023/01/31 00:02:54;;;;;;;15.77;3.10;;;;;;;6.74;46.39;102001.81;7383560;19;20018;-63
2023/01/31 00:05:27;;;;;;;15.77;2.92;;;;;;;6.66;46.93;102001.34;7390381;19;20007;-64
2023/01/31 00:07:53;;;;;;;19.30;3.20;;;;;;;6.61;46.91;101998.69;7388649;19;20022;-61
2023/01/31 00:10:19;;;;;;;18.35;3.28;;;;;;;6.58;46.90;101993.84;7387925;19;20463;-63
2023/01/31 00:12:44;;;;;;;14.82;3.22;;;;;;;6.59;46.82;101983.78;7389155;19;20602;-65
2023/01/31 00:15:12;;;;;;;17.48;3.30;;;;;;;6.64;46.90;101976.44;7388176;19;19999;-64
2023/01/31 00:17:38;;;;;;;17.27;3.95;;;;;;;6.50;47.04;101978.97;7388446;19;20027;-63
2023/01/31 00:20:04;;;;;;;17.15;3.05;;;;;;;6.56;46.93;101966.19;7388233;19;20070;-64
2023/01/31 00:22:30;;;;;;;12.68;3.10;;;;;;;6.52;47.00;101973.25;7387631;19;19999;-64
2023/01/31 00:24:56;;;;;;;18.83;3.40;;;;;;;6.57;46.91;101977.84;7394677;19;20080;-63
2023/01/31 00:27:21;;;;;;;16.27;3.22;;;;;;;6.50;46.88;101986.31;7396512;19;20003;-65
2023/01/31 00:29:47;;;;;;;15.55;3.20;;;;;;;6.40;47.12;101980.97;7394627;19;20489;-64
2023/01/31 00:32:13;;;;;;;17.83;3.33;;;;;;;6.49;47.13;101976.53;7394523;19;20423;-65
2023/01/31 00:34:39;;;;;;;15.90;3.10;;;;;;;6.53;46.87;101972.19;7395803;19;19990;-62
2023/01/31 00:37:04;;;;;;;14.73;3.72;;;;;;;6.46;47.27;101977.09;7395929;19;20015;-62
2023/01/31 00:39:30;;;;;;;17.08;3.17;;;;;;;6.43;47.24;101974.97;7394212;19;20066;-63
2023/01/31 00:41:56;;;;;;;18.92;3.00;;;;;;;6.44;46.99;101974.69;7393628;19;20009;-62
2023/01/31 00:44:22;;;;;;;20.08;3.60;;;;;;;6.32;47.34;101985.09;7396490;19;20011;-61
2023/01/31 00:46:47;;;;;;;19.50;3.42;;;;;;;6.30;47.52;101981.84;7395746;19;20032;-62
2023/01/31 00:49:13;;;;;;;18.77;3.05;;;;;;;6.21;47.58;101984.38;7394101;19;19999;-62
2023/01/31 00:51:39;;;;;;;20.05;3.40;;;;;;;6.25;47.96;101979.97;7393003;19;20316;-62
2023/01/31 00:54:05;;;;;;;18.05;3.35;;;;;;;6.19;48.22;101985.72;7395790;19;20020;-63
2023/01/31 00:56:31;;;;;;;24.10;3.85;;;;;;;6.34;47.88;101993.75;7395922;19;20007;-62
2023/01/31 00:58:56;;;;;;;18.33;3.40;;;;;;;6.32;48.10;101985.88;7394512;19;20014;-62
2023/01/31 01:01:25;;;;;;;21.40;3.53;;;;;;;6.30;48.17;101984.56;7393388;19;20002;-63
2023/01/31 01:03:51;;;;;;;22.35;3.45;;;;;;;6.19;48.44;101983.00;7395117;19;20016;-64
2023/01/31 01:06:18;;;;;;;17.20;3.80;;;;;;;6.38;48.24;101988.59;7395442;19;20087;-63
2023/01/31 01:08:45;;;;;;;19.88;3.30;;;;;;;6.34;48.41;101988.31;7391648;19;20471;-63
2023/01/31 01:11:19;;;;;;;23.38;3.95;;;;;;;6.22;48.50;101979.75;7393940;19;20016;-65
2023/01/31 01:13:45;;;;;;;20.48;3.92;;;;;;;6.21;48.74;101981.66;7393671;19;20015;-65
2023/01/31 01:16:14;;;;;;;20.38;3.28;;;;;;;6.21;48.70;101987.06;7395246;19;19995;-62
2023/01/31 01:18:43;;;;;;;18.55;3.35;;;;;;;6.11;49.14;101996.09;7393678;19;20015;-62
2023/01/31 01:21:15;;;;;;;21.85;3.60;;;;;;;6.25;48.76;101979.97;7393432;19;20339;-63
2023/01/31 01:23:41;;;;;;;19.40;3.55;;;;;;;6.28;48.70;101989.47;7391358;19;19995;-62
2023/01/31 01:26:21;;;;;;;20.63;3.25;;;;;;;6.41;48.66;101988.81;7395532;19;19995;-63
2023/01/31 01:28:48;;;;;;;22.15;3.20;;;;;;;6.36;48.58;101998.88;7393406;19;20344;-63
2023/01/31 01:31:15;;;;;;;19.48;3.17;;;;;;;6.44;48.48;101993.69;7393638;19;20027;-63
2023/01/31 01:33:42;;;;;;;22.52;3.17;;;;;;;6.31;48.52;101995.13;7394509;19;19994;-64
2023/01/31 01:36:12;;;;;;;20.83;3.00;;;;;;;6.28;48.55;101995.69;7392373;19;20114;-62
2023/01/31 01:38:39;;;;;;;13.23;3.10;;;;;;;6.33;48.36;101986.72;7393748;19;20087;-64
2023/01/31 01:41:06;;;;;;;18.35;3.05;;;;;;;6.42;48.26;101990.44;7394227;19;20107;-65
2023/01/31 01:44:24;;;;;;;16.52;2.28;;;;;;;6.24;48.60;101991.94;7394658;19;20003;-64
2023/01/31 01:46:50;;;;;;;18.52;2.88;;;;;;;6.23;48.54;101995.72;7391934;19;20058;-63
2023/01/31 01:49:31;;;;;;;14.38;2.53;;;;;;;6.08;49.08;102001.25;7392673;19;20002;-62
2023/01/31 01:52:01;;;;;;;14.07;2.28;;;;;;;6.20;48.78;101999.00;7392692;19;20129;-62
2023/01/31 01:54:35;;;;;;;15.68;3.25;;;;;;;6.25;48.81;102001.69;7394243;19;20393;-63
2023/01/31 01:57:05;;;;;;;13.25;2.40;;;;;;;6.30;48.30;102003.53;7393434;19;20088;-63
2023/01/31 01:59:40;;;;;;;12.73;2.17;;;;;;;6.37;48.79;102019.50;7393611;19;19998;-63
2023/01/31 02:02:06;;;;;;;13.32;2.40;;;;;;;6.38;48.34;102016.50;7391740;19;19991;-64
2023/01/31 02:04:36;;;;;;;14.13;2.72;;;;;;;6.41;48.40;102012.41;7393676;19;20013;-63
2023/01/31 02:07:03;;;;;;;16.55;3.20;;;;;;;6.45;48.19;102011.56;7391291;19;20002;-63
2023/01/31 02:09:45;;;;;;;18.15;3.05;;;;;;;6.41;48.68;102015.94;7391590;19;20062;-63
2023/01/31 02:12:12;;;;;;;16.00;2.28;;;;;;;6.40;48.63;102013.50;7392057;19;20012;-63
2023/01/31 02:14:38;;;;;;;16.48;2.50;;;;;;;6.40;48.75;102022.44;7391025;19;20483;-63
2023/01/31 02:17:04;;;;;;;20.73;3.00;;;;;;;6.29;49.10;102019.00;7392253;19;20002;-63
2023/01/31 02:19:56;;;;;;;16.83;3.05;;;;;;;6.42;48.90;102027.59;7393517;19;20006;-63
2023/01/31 02:22:34;;;;;;;17.58;3.20;;;;;;;6.47;48.96;102043.81;7389763;19;20010;-63
2023/01/31 02:25:27;;;;;;;23.70;3.28;;;;;;;6.55;49.09;102045.94;7390657;19;20002;-63
2023/01/31 02:27:59;;;;;;;15.73;3.30;;;;;;;6.67;48.72;102032.81;7392264;19;20002;-63
2023/01/31 02:30:52;;;;;;;22.13;3.83;;;;;;;6.53;49.89;102029.16;7390889;19;20014;-63
2023/01/31 02:33:36;;;;;;;19.42;3.65;;;;;;;6.51;50.10;102034.06;7392012;19;20003;-63
2023/01/31 02:36:23;;;;;;;20.17;3.45;;;;;;;6.52;50.13;102027.50;7392485;19;20011;-63
2023/01/31 02:39:17;;;;;;;20.23;3.17;;;;;;;6.43;50.29;102016.47;7391764;19;20032;-63
2023/01/31 02:42:12;;;;;;;19.83;2.78;;;;;;;6.44;49.81;102011.84;7390811;19;20006;-63
2023/01/31 02:44:59;;;;;;;23.15;3.55;;;;;;;6.69;49.63;102010.81;7392259;19;19999;-63
2023/01/31 02:48:01;;;;;;;18.25;3.83;;;;;;;6.65;49.64;102010.59;7391379;19;20150;-64
2023/01/31 02:50:36;;;;;;;19.08;3.45;;;;;;;6.34;50.26;102023.56;7391885;19;20002;-64
2023/01/31 02:53:08;;;;;;;22.60;3.53;;;;;;;6.39;50.05;102017.31;7391931;19;19999;-64
2023/01/31 02:58:41;;;;;;;21.50;4.35;;;;;;;6.61;49.46;102009.53;7391420;19;20006;-64
2023/01/31 03:01:12;;;;;;;17.17;3.58;;;;;;;6.65;49.22;102015.22;7390899;19;19999;-65
2023/01/31 03:03:38;;;;;;;26.15;3.78;;;;;;;6.53;49.53;102018.28;7391880;19;20035;-64
2023/01/31 03:06:22;;;;;;;21.95;4.05;;;;;;;6.48;49.46;101999.34;7391267;19;20476;-64
2023/01/31 03:09:12;;;;;;;;;;;;;;;6.46;49.66;101990.66;7390995;19;20010;-64
2023/01/31 03:11:52;;;;;;;19.95;3.88;;;;;;;6.45;49.42;101992.56;7389284;19;19939;-64
2023/01/31 03:15:06;;;;;;;24.98;3.95;;;;;;;6.61;49.20;101978.88;7391767;19;19995;-62
2023/01/31 03:17:53;;;;;;;20.25;3.63;;;;;;;6.54;49.29;101984.63;7388037;19;20026;-61
2023/01/31 03:20:31;;;;;;;20.48;4.18;;;;;;;6.30;49.48;101981.84;7390526;19;20344;-62
2023/01/31 03:23:10;;;;;;;21.45;3.75;;;;;;;6.44;49.21;101982.00;7391793;19;20054;-61
2023/01/31 03:25:38;;;;;;;24.23;3.70;;;;;;;6.47;49.09;101976.81;7390891;19;20383;-62
2023/01/31 03:28:10;;;;;;;27.67;4.07;;;;;;;6.37;49.19;101984.25;7389989;19;20002;-61
2023/01/31 03:30:42;;;;;;;24.05;3.38;;;;;;;6.37;49.39;101985.03;7389543;19;20003;-63
2023/01/31 03:33:15;;;;;;;22.55;4.22;;;;;;;6.44;48.84;101988.25;7391583;19;20006;-62
2023/01/31 03:35:45;;;;;;;15.77;3.22;;;;;;;6.50;48.79;101980.88;7390282;19;20007;-61
2023/01/31 03:38:20;;;;;;;21.77;4.35;;;;;;;6.61;48.38;101990.56;7390318;19;20003;-62
2023/01/31 03:40:52;;;;;;;23.73;3.75;;;;;;;6.50;48.37;101984.41;7391017;19;20444;-62
2023/01/31 03:43:36;;;;;;;16.67;3.08;;;;;;;6.41;48.50;101967.13;7389584;19;20085;-61
2023/01/31 03:46:11;;;;;;;20.40;3.13;;;;;;;6.40;48.55;101967.41;7388112;19;20458;-62
2023/01/31 03:48:42;;;;;;;16.55;2.85;;;;;;;6.44;48.44;101973.88;7389677;19;20010;-62
2023/01/31 03:51:16;;;;;;;19.00;3.63;;;;;;;6.24;48.96;101981.09;7389925;19;20023;-62
2023/01/31 03:53:48;;;;;;;20.88;3.55;;;;;;;6.18;48.87;101982.22;7390143;19;20001;-62
2023/01/31 03:56:24;;;;;;;24.15;4.00;;;;;;;6.21;48.69;101970.81;7388265;19;20016;-62
2023/01/31 03:59:00;;;;;;;18.23;3.28;;;;;;;6.33;48.36;101984.00;7392023;19;20006;-62
2023/01/31 04:01:28;;;;;;;19.15;3.75;;;;;;;6.27;48.36;101977.78;7395499;19;20017;-62
2023/01/31 04:04:05;;;;;;;20.13;3.63;;;;;;;6.41;47.95;101972.56;7397627;19;20042;-62
2023/01/31 04:06:31;;;;;;;24.02;3.63;;;;;;;6.37;48.23;101970.69;7397492;19;20335;-63
2023/01/31 04:08:57;;;;;;;22.70;3.97;;;;;;;6.31;47.89;101978.88;7395874;19;19995;-64
2023/01/31 04:11:24;;;;;;;25.55;3.70;;;;;;;6.37;48.03;101976.09;7396055;19;19998;-64
2023/01/31 04:13:50;;;;;;;18.10;3.85;;;;;;;6.43;47.73;101977.69;7397353;19;20397;-64
2023/01/31 04:16:16;;;;;;;21.83;3.08;;;;;;;6.21;48.17;101976.22;7396855;19;19998;-62
2023/01/31 04:18:42;;;;;;;23.80;3.40;;;;;;;6.12;48.34;101978.72;7396918;19;20127;-61
2023/01/31 04:21:08;;;;;;;19.98;2.90;;;;;;;6.22;48.33;101974.31;7394058;19;20009;-61
2023/01/31 04:23:35;;;;;;;21.58;3.63;;;;;;;6.35;47.88;101979.09;7396886;19;19990;-61
2023/01/31 04:26:00;;;;;;;20.35;3.72;;;;;;;6.26;48.24;101980.78;7396825;19;20074;-64
2023/01/31 04:28:26;;;;;;;18.55;2.85;;;;;;;6.12;48.27;101965.16;7394958;19;20006;-65
2023/01/31 04:30:53;;;;;;;23.85;3.53;;;;;;;6.25;48.09;101969.13;7395925;19;19998;-64
2023/01/31 04:33:19;;;;;;;25.50;3.60;;;;;;;6.24;48.05;101964.00;7396698;19;19994;-64
2023/01/31 04:35:45;;;;;;;13.00;2.60;;;;;;;6.37;47.63;101965.25;7394520;19;20009;-65
2023/01/31 04:38:11;;;;;;;22.77;4.38;;;;;;;6.16;48.19;101957.31;7395495;19;19999;-65
2023/01/31 04:40:37;;;;;;;19.85;2.80;;;;;;;6.14;48.35;101973.00;7395820;19;19998;-65
2023/01/31 04:43:03;;;;;;;21.58;2.97;;;;;;;6.35;47.80;101968.25;7396257;19;19997;-64
2023/01/31 04:45:29;;;;;;;16.00;2.75;;;;;;;6.41;47.76;101969.00;7396193;19;20361;-64
2023/01/31 04:47:54;;;;;;;19.60;2.97;;;;;;;6.45;47.69;101968.16;7395107;19;20008;-65
2023/01/31 04:50:20;;;;;;;18.27;3.08;;;;;;;6.44;47.68;101968.44;7393959;19;19991;-64
2023/01/31 04:52:50;;;;;;;17.02;3.40;;;;;;;6.47;47.70;101962.47;7395764;19;20024;-64
2023/01/31 04:55:17;;;;;;;17.30;3.15;;;;;;;6.45;47.67;101961.94;7395825;19;20463;-65
2023/01/31 04:57:43;;;;;;;19.70;2.90;;;;;;;6.42;47.77;101960.59;7394883;19;20002;-64
2023/01/31 05:00:10;;;;;;;18.20;3.58;;;;;;;6.34;47.94;101954.97;7395746;19;20447;-64
2023/01/31 05:02:35;;;;;;;21.58;2.70;;;;;;;6.48;47.55;101953.25;7393566;19;20317;-64
2023/01/31 05:05:02;;;;;;;24.85;3.38;;;;;;;6.25;48.02;101947.44;7393803;19;20035;-63
2023/01/31 05:07:28;;;;;;;16.00;2.50;;;;;;;6.40;47.92;101948.44;7394819;19;20028;-63
2023/01/31 05:09:54;;;;;;;19.50;3.08;;;;;;;6.40;47.80;101937.56;7392283;19;20003;-63
2023/01/31 05:12:20;;;;;;;16.42;3.58;;;;;;;6.38;47.74;101934.34;7393115;19;20006;-63
2023/01/31 05:14:45;;;;;;;19.30;2.90;;;;;;;6.42;47.73;101935.38;7393626;19;20005;-63
2023/01/31 05:17:11;;;;;;;16.35;2.53;;;;;;;6.44;47.68;101933.19;7394164;19;20035;-63
2023/01/31 05:19:44;;;;;;;18.48;3.17;;;;;;;6.44;47.63;101925.06;7393338;19;20007;-63
2023/01/31 05:22:10;;;;;;;18.50;2.97;;;;;;;6.49;47.60;101933.13;7393047;19;20018;-61
2023/01/31 05:24:36;;;;;;;16.73;2.85;;;;;;;6.58;47.27;101923.31;7395041;19;20352;-63
2023/01/31 05:27:02;;;;;;;20.98;2.50;;;;;;;6.53;47.43;101926.06;7393623;19;20058;-64
2023/01/31 05:29:29;;;;;;;18.42;3.10;;;;;;;6.55;47.40;101918.44;7393247;19;20007;-63
2023/01/31 05:31:57;;;;;;;14.15;3.20;;;;;;;6.51;47.42;101914.69;7393353;19;20358;-64
2023/01/31 05:34:29;;;;;;;17.25;2.72;;;;;;;6.54;47.40;101927.66;7394799;19;20003;-63
2023/01/31 05:36:55;;;;;;;19.60;2.83;;;;;;;6.58;47.29;101925.22;7394200;19;20003;-63
2023/01/31 05:39:21;;;;;;;14.32;2.63;;;;;;;6.50;47.58;101918.50;7394397;19;20048;-64
2023/01/31 05:41:47;;;;;;;17.95;3.05;;;;;;;6.57;47.48;101915.44;7390366;19;20486;-62
2023/01/31 05:44:15;;;;;;;13.88;2.53;;;;;;;6.58;47.39;101915.16;7394809;19;20110;-62
2023/01/31 05:46:41;;;;;;;18.52;3.33;;;;;;;6.61;47.29;101917.31;7393363;19;20339;-62
2023/01/31 05:49:07;;;;;;;17.80;3.03;;;;;;;6.63;47.19;101915.09;7393115;19;20009;-62
2023/01/31 05:51:33;;;;;;;14.93;3.00;;;;;;;6.53;47.50;101919.81;7392869;19;20023;-62
2023/01/31 05:53:59;;;;;;;19.23;3.10;;;;;;;6.52;47.49;101923.63;7394199;19;20007;-61
2023/01/31 05:56:24;;;;;;;15.20;3.03;;;;;;;6.65;47.36;101922.97;7393271;19;20329;-61
2023/01/31 05:58:50;;;;;;;15.85;2.65;;;;;;;6.71;47.19;101916.41;7393741;19;20005;-62
2023/01/31 06:01:18;;;;;;;15.43;2.90;;;;;;;6.60;47.37;101909.44;7388320;19;20424;-60
2023/01/31 06:03:43;;;;;;;17.60;4.25;;;;;;;6.52;47.80;101912.78;7394873;19;20015;-60
2023/01/31 06:06:09;;;;;;;18.33;3.67;;;;;;;6.62;47.62;101909.97;7393957;19;20073;-60
2023/01/31 06:08:35;;;;;;;21.08;2.92;;;;;;;6.54;47.82;101894.31;7392180;19;19995;-60
2023/01/31 06:11:03;;;;;;;17.38;2.78;;;;;;;6.69;47.44;101891.44;7393122;19;19999;-60
2023/01/31 06:13:32;;;;;;;14.85;3.17;;;;;;;6.65;47.65;101890.41;7393282;19;20002;-60
2023/01/31 06:15:58;;;;;;;16.23;2.72;;;;;;;6.61;47.65;101890.19;7393385;19;19995;-59
2023/01/31 06:18:25;;;;;;;15.38;3.22;;;;;;;6.71;47.53;101888.44;7392606;19;20006;-60
2023/01/31 06:20:51;;;;;;;15.77;3.58;;;;;;;6.62;47.73;101886.34;7392717;19;20007;-59
2023/01/31 06:23:17;;;;;;;16.30;2.97;;;;;;;6.73;47.70;101883.53;7392659;19;20009;-59
2023/01/31 06:25:48;;;;;;;18.30;3.20;;;;;;;6.84;47.45;101890.47;7391599;19;20011;-59
2023/01/31 06:28:14;;;;;;;19.50;3.00;;;;;;;6.81;47.48;101882.88;7391707;19;19998;-59
2023/01/31 06:30:39;;;;;;;17.23;3.08;;;;;;;6.70;48.01;101875.97;7392823;19;20015;-59
2023/01/31 06:33:05;;;;;;;16.83;3.38;;;;;;;6.67;47.83;101875.44;7392805;19;20325;-60
2023/01/31 06:35:32;;;;;;;18.42;3.67;;;;;;;6.71;48.00;101872.16;7392534;19;20008;-60
2023/01/31 06:37:58;;;;;;;16.52;3.53;;;;;;;6.79;47.70;101866.09;7392414;19;19995;-59
2023/01/31 06:40:24;;;;;;;16.50;2.92;;;;;;;6.81;47.63;101874.75;7391895;19;20012;-59
2023/01/31 06:42:50;;;;;;;19.27;4.13;;;;;;;6.76;47.99;101861.25;7390907;19;19995;-59
2023/01/31 06:45:16;;;;;;;15.40;3.15;;;;;;;6.67;48.23;101836.66;7390877;19;19994;-60
2023/01/31 06:47:44;;;;;;;17.05;4.00;;;;;;;6.66;48.17;101838.56;7389578;19;19991;-60
2023/01/31 06:50:10;;;;;;;19.05;3.83;;;;;;;6.77;48.05;101841.97;7391103;19;19998;-60
2023/01/31 06:52:37;;;;;;;15.65;3.33;;;;;;;6.88;47.74;101829.09;7390425;19;20026;-60
2023/01/31 06:55:03;;;;;;;17.20;4.00;;;;;;;6.83;48.17;101815.59;7392335;19;20002;-60
2023/01/31 06:57:29;;;;;;;22.35;4.85;;;;;;;6.62;48.43;101810.38;7391090;19;20019;-61
2023/01/31 06:59:54;;;;;;;14.45;3.38;;;;;;;6.80;48.07;101799.88;7391993;19;19999;-60
2023/01/31 07:02:20;;;;;;;19.80;4.13;;;;;;;6.82;48.13;101797.69;7390508;19;20438;-62
2023/01/31 07:04:46;;;;;;;24.80;4.78;;;;;;;6.86;48.10;101806.84;7391536;19;20517;-61
2023/01/31 07:07:12;;;;;;;23.35;4.85;;;;;;;6.85;48.19;101797.91;7391005;19;20006;-61
2023/01/31 07:09:37;;;;;;;20.65;4.57;;;;;;;6.71;48.56;101793.47;7390554;19;20007;-62
2023/01/31 07:12:03;;;;;;;23.60;4.20;;;;;;;6.92;48.23;101808.44;7389950;19;20023;-62
2023/01/31 07:14:29;;;;;;;23.67;4.68;;;;;;;6.84;48.13;101801.72;7391719;19;20022;-63
2023/01/31 07:16:55;;;;;;;17.50;4.97;;;;;;;6.90;48.26;101794.31;7391380;19;20022;-61
2023/01/31 07:19:21;;;;;;;19.75;4.47;;;;;;;6.95;48.09;101786.13;7389638;19;20022;-61
2023/01/31 07:21:48;;;;;;;19.17;5.07;;;;;;;6.93;48.27;101777.47;7390264;19;20002;-61
2023/01/31 07:24:14;;;;;;;18.48;4.35;;;;;;;6.85;48.27;101792.47;7390823;19;20006;-62
2023/01/31 07:26:40;;;;;;;21.77;4.80;;;;;;;6.84;48.28;101779.19;7391761;19;20007;-61
2023/01/31 07:29:06;;;;;;;22.60;5.38;;;;;;;6.87;48.36;101784.03;7390029;19;20025;-61
2023/01/31 07:31:32;;;;;;;23.02;4.60;;;;;;;6.93;48.28;101776.66;7388182;19;20471;-62
2023/01/31 07:33:58;;;;;;;20.75;4.82;;;;;;;6.97;47.95;101778.50;7391755;19;20014;-62
2023/01/31 07:36:31;;;;;;;21.25;4.80;;;;;;;7.04;47.89;101770.81;7398849;19;20017;-62
2023/01/31 07:38:57;;;;;;;22.02;5.07;;;;;;;7.00;48.02;101772.50;7398279;19;20026;-62
2023/01/31 07:41:24;;;;;;;21.10;4.68;;;;;;;7.02;48.15;101764.84;7398106;19;20010;-61
2023/01/31 07:43:50;;;;;;;26.73;5.00;;;;;;;7.02;48.09;101745.84;7398034;19;20027;-62
2023/01/31 07:46:15;;;;;;;18.52;4.10;;;;;;;6.98;48.24;101752.97;7398509;19;20350;-62
2023/01/31 07:48:41;;;;;;;21.67;4.40;;;;;;;6.92;48.54;101759.56;7396664;19;20114;-62
2023/01/31 07:51:14;;;;;;;22.42;5.00;;;;;;;7.02;48.45;101758.63;7397907;19;20007;-62
2023/01/31 07:53:43;;;;;;;16.90;4.93;;;;;;;6.99;48.21;101753.78;7398065;19;20514;-62
2023/01/31 07:56:14;;;;;;;19.23;4.80;;;;;;;6.95;48.44;101734.56;7398012;19;20003;-62
2023/01/31 07:58:42;;;;;;;20.85;4.78;;;;;;;7.03;48.28;101743.97;7397087;19;20005;-63
2023/01/31 08:04:10;;;;;;;20.00;6.00;;;;;;;7.02;48.47;101721.41;7397252;19;19998;-63
2023/01/31 08:06:38;;;;;;;21.00;5.55;;;;;;;7.13;48.22;101715.84;7397092;19;20344;-63
2023/01/31 08:09:04;;;;;;;17.95;5.75;;;;;;;7.13;48.59;101705.78;7395186;19;20025;-60
2023/01/31 08:11:29;;;;;;;19.08;5.35;;;;;;;7.19;48.31;101695.66;7396292;19;20459;-63
2023/01/31 08:13:55;;;;;;;21.60;6.43;;;;;;;6.97;48.92;101679.97;7397624;19;20066;-61
2023/01/31 08:16:21;;;;;;;19.88;6.13;;;;;;;7.06;48.73;101686.34;7397294;19;20022;-62
2023/01/31 08:18:48;;;;;;;20.88;5.95;;;;;;;7.10;48.86;101683.88;7394945;19;20002;-62
2023/01/31 08:21:15;;;;;;;23.08;6.30;;;;;;;7.23;48.37;101677.69;7396637;19;20499;-61
2023/01/31 08:23:41;;;;;;;23.75;6.75;;;;;;;7.31;48.49;101674.28;7397382;19;19999;-61
2023/01/31 08:26:11;;;;;;;25.52;6.50;;;;;;;7.37;48.25;101667.66;7396735;19;19999;-61
2023/01/31 08:28:38;;;;;;;25.70;6.88;;;;;;;7.33;48.47;101653.06;7393922;19;19999;-62
2023/01/31 08:31:05;;;;;;;21.20;6.60;;;;;;;7.16;49.00;101647.38;7396254;19;20003;-61
2023/01/31 08:33:31;;;;;;;29.10;6.32;;;;;;;7.19;48.92;101644.84;7397308;19;20013;-62
2023/01/31 08:36:07;;;;;;;24.40;6.85;;;;;;;7.37;48.83;101645.13;7396669;19;20002;-61
2023/01/31 08:38:33;;;;;;;21.38;6.28;;;;;;;7.22;48.99;101635.31;7395905;19;20003;-61
2023/01/31 08:40:59;;;;;;;23.67;6.93;;;;;;;7.25;49.01;101632.03;7395511;19;20006;-61
2023/01/31 08:43:25;;;;;;;23.58;7.35;;;;;;;7.27;49.20;101637.94;7396072;19;19998;-63
2023/01/31 08:45:50;;;;;;;23.80;7.00;;;;;;;7.32;49.06;101637.84;7395540;19;20008;-63
2023/01/31 08:48:16;;;;;;;21.63;6.63;;;;;;;7.24;49.10;101643.97;7395104;19;20079;-62
2023/01/31 08:50:42;;;;;;;23.45;6.57;;;;;;;7.39;49.03;101640.97;7395866;19;20074;-62
2023/01/31 08:53:08;;;;;;;19.63;6.55;;;;;;;7.26;49.09;101628.19;7394499;19;20054;-65
2023/01/31 08:55:35;;;;;;;18.75;7.20;;;;;;;7.29;49.29;101640.38;7395027;19;19997;-63
2023/01/31 08:58:01;;;;;;;23.48;7.32;;;;;;;7.30;49.24;101631.13;7395649;19;20016;-61
2023/01/31 09:00:28;;;;;;;18.83;7.20;;;;;;;7.38;49.26;101630.44;7396121;19;19991;-62
2023/01/31 09:02:58;;;;;;;26.92;7.65;;;;;;;7.53;49.02;101627.44;7393095;19;20339;-61
2023/01/31 09:05:26;;;;;;;23.30;8.70;;;;;;;7.41;49.09;101614.34;7394005;19;20007;-62
2023/01/31 09:07:52;;;;;;;24.05;7.07;;;;;;;7.35;49.44;101620.19;7395231;19;20096;-62
2023/01/31 09:10:19;;;;;;;19.23;8.18;;;;;;;7.48;49.24;101615.84;7393416;19;20013;-61
2023/01/31 09:12:45;;;;;;;20.75;7.72;;;;;;;7.15;50.38;101611.28;7391659;19;20007;-63
2023/01/31 09:15:12;;;;;;;23.45;8.00;;;;;;;7.44;49.84;101617.56;7395672;19;20476;-62
2023/01/31 09:17:39;;;;;;;20.65;7.60;;;;;;;7.28;50.29;101608.88;7393224;19;20006;-62
2023/01/31 09:20:08;;;;;;;24.60;8.45;;;;;;;7.27;50.46;101613.50;7395343;19;20015;-61
2023/01/31 09:22:34;;;;;;;31.10;8.95;;;;;;;7.35;50.25;101609.31;7393652;19;20040;-62
2023/01/31 09:25:01;;;;;;;24.98;9.00;;;;;;;7.34;50.16;101613.13;7394934;19;20423;-62
2023/01/31 09:27:28;;;;;;;26.05;9.27;;;;;;;7.27;50.47;101602.66;7394617;19;20121;-62
2023/01/31 09:29:53;;;;;;;19.95;8.27;;;;;;;7.36;50.19;101611.72;7391446;19;20324;-62
2023/01/31 09:32:20;;;;;;;21.75;8.70;;;;;;;7.25;50.66;101610.28;7393878;19;20015;-61
2023/01/31 09:34:48;;;;;;;25.75;9.25;;;;;;;7.33;50.90;101593.31;7392694;19;20007;-63
2023/01/31 09:37:14;;;;;;;22.20;9.05;;;;;;;7.27;50.81;101591.78;7394413;19;20017;-61
2023/01/31 09:39:40;;;;;;;27.88;8.98;;;;;;;7.44;50.76;101606.69;7392851;19;20006;-62
2023/01/31 09:42:36;;;;;;;25.88;8.93;;;;;;;7.35;51.20;101591.09;7393825;19;20023;-63
2023/01/31 09:45:06;;;;;;;21.48;7.55;;;;;;;7.33;50.84;101596.03;7394358;19;20375;-62
2023/01/31 09:47:42;;;;;;;23.42;7.28;;;;;;;7.36;50.74;101594.59;7393170;19;20486;-62
2023/01/31 09:50:29;;;;;;;22.00;7.32;;;;;;;7.18;51.64;101588.16;7390191;19;20494;-62
2023/01/31 09:52:56;;;;;;;17.80;7.30;;;;;;;7.37;50.96;101597.03;7391748;19;19999;-62
2023/01/31 09:55:32;;;;;;;23.55;8.10;;;;;;;7.30;51.33;101580.34;7393970;19;20475;-62
2023/01/31 09:58:03;;;;;;;20.95;7.60;;;;;;;7.26;51.75;101568.44;7391383;19;20037;-63
2023/01/31 10:00:35;;;;;;;28.55;9.00;;;;;;;7.47;51.27;101557.22;7393678;19;20030;-62
2023/01/31 10:03:38;;;;;;;20.55;7.38;;;;;;;7.51;51.30;101552.78;7392505;19;20010;-62
2023/01/31 10:06:11;;;;;;;23.33;7.63;;;;;;;7.54;51.29;101552.97;7393677;19;20061;-62
2023/01/31 10:08:50;;;;;;;22.08;8.57;;;;;;;7.35;51.90;101549.56;7392360;19;20002;-64
2023/01/31 10:11:42;;;;;;;22.85;7.60;;;;;;;7.32;52.21;101540.09;7393344;19;20009;-65
2023/01/31 10:14:11;;;;;;;20.40;8.02;;;;;;;7.45;51.59;101554.00;7393817;19;20061;-63
2023/01/31 10:16:44;;;;;;;21.27;7.95;;;;;;;7.31;51.96;101541.22;7393697;19;20093;-63
2023/01/31 10:19:23;;;;;;;25.25;7.90;;;;;;;7.29;52.43;101540.69;7392920;19;19998;-64
2023/01/31 10:21:56;;;;;;;24.77;8.82;;;;;;;7.41;51.73;101538.31;7391895;19;20074;-63
2023/01/31 10:24:30;;;;;;;21.10;7.97;;;;;;;7.24;52.16;101538.06;7393201;19;19995;-63
2023/01/31 10:26:59;;;;;;;;;;;;;;;7.26;52.92;101533.13;7393554;19;20031;-64
2023/01/31 10:29:33;;;;;;;19.20;7.35;;;;;;;7.35;52.42;101534.06;7392102;19;20307;-64
2023/01/31 10:32:04;;;;;;;22.42;7.95;;;;;;;7.17;52.30;101526.81;7391832;19;20015;-63
2023/01/31 10:34:46;;;;;;;22.77;7.80;;;;;;;7.33;52.54;101540.88;7392088;19;20456;-63
2023/01/31 10:37:34;;;;;;;22.10;7.53;;;;;;;7.47;52.17;101535.47;7392586;19;19999;-64
2023/01/31 10:40:11;;;;;;;17.85;7.72;;;;;;;7.56;51.67;101530.94;7391857;19;20013;-65
2023/01/31 10:42:38;;;;;;;20.58;7.47;;;;;;;7.47;51.79;101535.47;7392158;19;20002;-64
2023/01/31 10:45:07;;;;;;;26.08;8.10;;;;;;;7.55;51.48;101535.56;7392342;19;20002;-64
2023/01/31 10:48:00;;;;;;;22.42;7.40;;;;;;;7.49;51.80;101522.41;7391346;19;19999;-64
2023/01/31 10:50:38;;;;;;;23.60;7.60;;;;;;;7.40;52.32;101517.66;7390613;19;20216;-62
2023/01/31 10:53:03;;;;;;;19.88;7.00;;;;;;;7.48;52.05;101504.47;7392076;19;20054;-64
2023/01/31 10:55:42;;;;;;;23.83;7.68;;;;;;;7.59;51.35;101500.44;7391842;19;20363;-64
2023/01/31 10:58:16;;;;;;;19.95;7.50;;;;;;;7.56;51.80;101490.19;7392272;19;20002;-62
2023/01/31 11:00:42;;;;;;;22.30;7.47;;;;;;;7.46;52.30;101493.13;7392863;19;19999;-62
2023/01/31 11:03:12;;;;;;;26.02;6.63;;;;;;;7.52;52.06;101495.44;7390553;19;20043;-62
2023/01/31 11:05:46;;;;;;;23.33;6.57;;;;;;;7.54;52.23;101492.41;7390553;19;19999;-61
2023/01/31 11:08:23;;;;;;;28.40;7.18;;;;;;;7.63;52.14;101485.16;7391230;19;20002;-63
2023/01/31 11:10:52;;;;;;;18.52;6.50;;;;;;;7.50;52.59;101475.91;7391917;19;20007;-62
2023/01/31 11:13:19;;;;;;;15.90;6.25;;;;;;;7.45;53.09;101472.50;7391495;19;20010;-61
2023/01/31 11:15:47;;;;;;;20.05;6.43;;;;;;;7.65;52.40;101477.50;7391885;19;20017;-62
2023/01/31 11:18:32;;;;;;;20.67;6.50;;;;;;;7.77;52.67;101491.38;7390375;19;20467;-62
2023/01/31 11:21:00;;;;;;;23.38;6.40;;;;;;;7.73;52.34;101484.94;7391067;19;20006;-63
2023/01/31 11:23:30;;;;;;;20.13;6.47;;;;;;;7.61;53.00;101484.63;7389714;19;20018;-64
2023/01/31 11:25:57;;;;;;;19.77;6.03;;;;;;;7.67;53.14;101485.34;7391161;19;20064;-64
2023/01/31 11:28:32;;;;;;;21.88;5.63;;;;;;;7.75;52.98;101485.44;7389406;19;20006;-63
2023/01/31 11:30:58;;;;;;;21.08;6.22;;;;;;;7.92;52.59;101475.84;7390493;19;20018;-62
2023/01/31 11:33:54;;;;;;;19.95;5.55;;;;;;;7.73;53.91;101478.69;7389344;19;20006;-63
2023/01/31 11:36:21;;;;;;;18.30;5.63;;;;;;;7.71;53.35;101470.03;7391330;19;20011;-62
2023/01/31 11:38:51;;;;;;;16.25;5.38;;;;;;;7.77;53.36;101466.09;7390872;19;20347;-63
2023/01/31 11:41:34;;;;;;;17.38;5.93;;;;;;;7.98;53.20;101458.31;7390285;19;20006;-62
2023/01/31 11:44:16;;;;;;;17.30;4.95;;;;;;;7.69;54.35;101459.47;7389709;19;20041;-62
2023/01/31 11:46:56;;;;;;;18.17;5.30;;;;;;;7.96;53.13;101442.31;7388922;19;20073;-62